Terminal Aerodrome Forecast
Issued by NWS

Home | Current Version | Previous Version | Text Only | Print | Product List | Glossary On
Versions: 1 2 3 4 5 6 7 8 9 10 11 12 13 14 15
000
FTUS45 KABQ 211100
TAFTCC
TAF
KTCC 211129Z 2112/2212 26004KT P6SM BKN100
     FM211700 21009KT P6SM BKN090
     FM212000 20013KT P6SM BKN100
     FM220400 23006KT P6SM BKN080
     FM221000 24004KT P6SM OVC030=

USA.gov is the U.S. government's official web portal to all federal, state and local government web resources and services.